createdAt,value
2023-12-11T00:02:23.108Z,100426.91
2023-12-11T00:05:25.719Z,100415.56
2023-12-11T00:08:28.366Z,100412.00
2023-12-11T00:11:30.927Z,100416.34
2023-12-11T00:14:33.950Z,100420.31
2023-12-11T00:17:36.557Z,100429.53
2023-12-11T00:20:39.187Z,100428.72
2023-12-11T00:23:41.757Z,100423.63
2023-12-11T00:26:44.342Z,100429.34
2023-12-11T00:29:46.926Z,100414.25
2023-12-11T00:32:49.427Z,100424.88
2023-12-11T00:35:51.917Z,100416.13
2023-12-11T00:38:54.512Z,100426.09
2023-12-11T00:41:58.543Z,100418.56
2023-12-11T00:45:01.151Z,100419.81
2023-12-11T00:48:03.778Z,100413.22
2023-12-11T00:51:06.454Z,100412.31
2023-12-11T00:54:08.965Z,100411.53
2023-12-11T00:57:12.596Z,100404.47
2023-12-11T01:00:15.287Z,100406.72
2023-12-11T01:03:17.850Z,100412.97
2023-12-11T01:06:20.451Z,100408.44
2023-12-11T01:09:22.861Z,100399.00
2023-12-11T01:12:25.695Z,100410.50
2023-12-11T01:15:28.153Z,100410.16
2023-12-11T01:18:30.854Z,100404.78
2023-12-11T01:21:33.491Z,100398.53
2023-12-11T01:24:36.006Z,100400.81
2023-12-11T01:27:38.654Z,100396.72
2023-12-11T01:30:41.256Z,100394.56
2023-12-11T01:33:43.776Z,100398.06
2023-12-11T01:36:46.292Z,100406.47
2023-12-11T01:39:48.890Z,100401.56
2023-12-11T01:42:52.474Z,100389.66
2023-12-11T01:46:12.337Z,100383.78
2023-12-11T01:49:15.160Z,100375.00
2023-12-11T01:52:18.118Z,100365.47
2023-12-11T01:55:20.771Z,100367.06
2023-12-11T01:58:23.876Z,100352.38
2023-12-11T02:01:27.651Z,100343.38
2023-12-11T02:04:31.418Z,100332.88
2023-12-11T02:07:34.020Z,100332.66
2023-12-11T02:10:37.475Z,100333.91
2023-12-11T02:13:41.517Z,100335.84
2023-12-11T02:16:43.973Z,100337.19
2023-12-11T02:19:46.474Z,100331.94
2023-12-11T02:22:49.198Z,100335.09
2023-12-11T02:26:00.711Z,100322.25
2023-12-11T02:29:03.645Z,100325.41
2023-12-11T02:32:06.472Z,100320.34
2023-12-11T02:35:09.078Z,100305.50
2023-12-11T02:38:11.602Z,100304.97
2023-12-11T02:41:14.182Z,100311.47
2023-12-11T02:44:16.675Z,100309.91
2023-12-11T02:47:19.157Z,100312.03
2023-12-11T02:50:21.725Z,100311.00
2023-12-11T02:53:24.268Z,100312.34
2023-12-11T02:56:26.775Z,100291.09
2023-12-11T02:59:29.327Z,100308.13
2023-12-11T03:02:31.808Z,100306.06
2023-12-11T03:05:34.572Z,100295.59
2023-12-11T03:08:40.749Z,100314.56
2023-12-11T03:11:43.276Z,100315.13
2023-12-11T03:14:45.691Z,100315.28
2023-12-11T03:17:48.467Z,100308.28
2023-12-11T03:20:50.944Z,100293.69
2023-12-11T03:23:53.503Z,100292.59
2023-12-11T03:26:56.032Z,100306.22
2023-12-11T03:29:58.524Z,100287.16
2023-12-11T03:33:01.099Z,100289.50
2023-12-11T03:36:03.791Z,100291.56
2023-12-11T03:39:08.731Z,100291.63
2023-12-11T03:42:11.365Z,100302.59
2023-12-11T03:45:13.822Z,100305.13
2023-12-11T03:48:16.357Z,100316.28
2023-12-11T03:51:18.897Z,100306.84
2023-12-11T03:54:21.427Z,100304.47
2023-12-11T03:57:23.899Z,100310.84
2023-12-11T04:00:26.421Z,100314.31
2023-12-11T04:03:28.904Z,100311.78
2023-12-11T04:06:31.663Z,100326.53
2023-12-11T04:09:34.320Z,100319.09
2023-12-11T04:12:36.801Z,100322.19
2023-12-11T04:15:39.338Z,100324.09
2023-12-11T04:18:42.424Z,100316.53
2023-12-11T04:21:44.946Z,100315.34
2023-12-11T04:24:47.437Z,100314.47
2023-12-11T04:27:49.959Z,100312.97
2023-12-11T04:30:52.829Z,100323.34
2023-12-11T04:33:55.581Z,100335.25
2023-12-11T04:36:58.137Z,100338.75
2023-12-11T04:40:00.693Z,100346.75
2023-12-11T04:43:03.244Z,100344.94
2023-12-11T04:46:05.849Z,100337.47
2023-12-11T04:49:08.441Z,100344.06
2023-12-11T04:52:11.004Z,100334.22
2023-12-11T04:55:13.654Z,100336.53
2023-12-11T04:58:16.248Z,100314.63
2023-12-11T05:01:18.917Z,100319.69
2023-12-11T05:04:21.664Z,100317.97
2023-12-11T05:07:24.281Z,100339.72
2023-12-11T05:10:26.823Z,100331.31
2023-12-11T05:13:29.332Z,100329.72
2023-12-11T05:16:31.840Z,100347.88
2023-12-11T05:19:36.939Z,100348.59
2023-12-11T05:22:39.915Z,100339.78
2023-12-11T05:25:42.435Z,100308.28
2023-12-11T05:28:44.977Z,100322.56
2023-12-11T05:31:47.588Z,100314.78
2023-12-11T05:34:50.165Z,100294.94
2023-12-11T05:37:53.418Z,100313.19
2023-12-11T05:40:56.833Z,100312.56
2023-12-11T05:44:00.252Z,100310.66
2023-12-11T05:47:02.847Z,100301.34
2023-12-11T05:50:05.906Z,100295.53
2023-12-11T05:53:08.767Z,100289.34
2023-12-11T05:56:11.446Z,100290.25
2023-12-11T05:59:14.105Z,100281.41
2023-12-11T06:02:17.033Z,100283.00
2023-12-11T06:05:19.640Z,100276.50
2023-12-11T06:08:22.137Z,100270.78
2023-12-11T06:11:25.210Z,100263.47
2023-12-11T06:14:27.767Z,100262.59
2023-12-11T06:17:30.564Z,100264.75
2023-12-11T06:20:33.328Z,100261.56
2023-12-11T06:23:35.838Z,100269.63
2023-12-11T06:26:43.359Z,100266.22
2023-12-11T06:29:46.028Z,100273.28
2023-12-11T06:32:48.566Z,100278.50
2023-12-11T06:35:51.116Z,100272.97
2023-12-11T06:38:53.712Z,100276.59
2023-12-11T06:41:57.570Z,100276.97
2023-12-11T06:45:01.501Z,100280.41
2023-12-11T06:48:04.380Z,100282.25
2023-12-11T06:51:06.947Z,100280.81
2023-12-11T06:54:09.462Z,100278.34
2023-12-11T06:57:12.687Z,100255.50
2023-12-11T07:00:15.474Z,100240.31
2023-12-11T07:03:18.447Z,100224.41
2023-12-11T07:06:21.165Z,100214.97
2023-12-11T07:09:23.947Z,100210.72
2023-12-11T07:12:26.433Z,100207.34
2023-12-11T07:15:28.912Z,100198.88
2023-12-11T07:18:31.478Z,100203.38
2023-12-11T07:21:34.135Z,100189.94
2023-12-11T07:24:36.754Z,100181.75
2023-12-11T07:27:39.384Z,100188.22
2023-12-11T07:30:41.988Z,100178.78
2023-12-11T07:33:44.675Z,100176.72
2023-12-11T07:36:47.431Z,100179.63
2023-12-11T07:39:50.337Z,100180.72
2023-12-11T07:42:53.316Z,100160.56
2023-12-11T07:45:55.938Z,100180.41
2023-12-11T07:48:58.453Z,100204.84
2023-12-11T07:52:02.883Z,100218.25
2023-12-11T07:55:06.695Z,100222.50
2023-12-11T07:58:09.363Z,100231.53
2023-12-11T08:01:14.330Z,100246.38
2023-12-11T08:04:17.404Z,100266.41
2023-12-11T08:07:19.965Z,100266.06
2023-12-11T08:10:22.695Z,100259.09
2023-12-11T08:13:25.371Z,100263.06
2023-12-11T08:16:27.889Z,100272.44
2023-12-11T08:19:30.467Z,100281.31
2023-12-11T08:22:33.057Z,100277.00
2023-12-11T08:25:35.540Z,100272.75
2023-12-11T08:28:38.198Z,100281.63
2023-12-11T08:31:40.672Z,100272.91
2023-12-11T08:34:43.504Z,100280.84
2023-12-11T08:37:46.084Z,100283.94
2023-12-11T08:40:48.536Z,100284.41
2023-12-11T08:43:51.003Z,100279.50
2023-12-11T08:46:53.434Z,100269.38
2023-12-11T08:49:56.120Z,100251.69
2023-12-11T08:53:00.295Z,100252.25
2023-12-11T08:56:02.832Z,100254.94
2023-12-11T08:59:05.336Z,100244.25
2023-12-11T09:02:08.024Z,100235.81
2023-12-11T09:05:10.574Z,100235.75
2023-12-11T09:08:13.119Z,100238.66
2023-12-11T09:11:15.646Z,100226.28
2023-12-11T09:14:18.175Z,100216.13
2023-12-11T09:17:20.668Z,100205.91
2023-12-11T09:20:23.344Z,100204.56
2023-12-11T09:23:25.992Z,100193.84
2023-12-11T09:26:28.480Z,100186.16
2023-12-11T09:29:30.959Z,100165.75
2023-12-11T09:32:33.724Z,100155.03
2023-12-11T09:35:36.380Z,100149.09
2023-12-11T09:38:39.211Z,100148.66
2023-12-11T09:41:44.835Z,100144.06
2023-12-11T09:44:49.754Z,100144.66
2023-12-11T09:48:08.000Z,100131.00
2023-12-11T09:51:15.375Z,100118.19
2023-12-11T09:54:18.051Z,100120.63
2023-12-11T09:57:20.910Z,100117.53
2023-12-11T10:00:24.057Z,100101.88
2023-12-11T10:03:26.698Z,100112.59
2023-12-11T10:06:29.454Z,100100.34
2023-12-11T10:09:36.361Z,100090.78
2023-12-11T10:12:42.035Z,100098.16
2023-12-11T10:15:44.969Z,100101.25
2023-12-11T10:18:50.766Z,100104.44
2023-12-11T10:21:53.630Z,100107.84
2023-12-11T10:24:56.961Z,100108.16
2023-12-11T10:28:07.876Z,100092.72
2023-12-11T10:31:11.135Z,100091.75
2023-12-11T10:34:14.266Z,100097.47
2023-12-11T10:37:20.648Z,100093.81
2023-12-11T10:40:23.174Z,100082.06
2023-12-11T10:43:25.783Z,100082.13
2023-12-11T10:46:29.044Z,100089.00
2023-12-11T10:49:31.854Z,100083.50
2023-12-11T10:52:35.084Z,100067.78
2023-12-11T10:55:39.081Z,100072.06
2023-12-11T10:58:41.758Z,100070.50
2023-12-11T11:01:47.120Z,100066.59
2023-12-11T11:04:50.076Z,100070.50
2023-12-11T11:08:03.973Z,100068.25
2023-12-11T11:11:16.028Z,100069.84
2023-12-11T11:14:48.568Z,100078.03
2023-12-11T11:18:01.577Z,100071.19
2023-12-11T11:21:12.333Z,100078.31
2023-12-11T11:24:28.036Z,100084.00
2023-12-11T11:27:44.613Z,100080.34
2023-12-11T11:30:52.571Z,100079.06
2023-12-11T11:33:57.892Z,100066.69
2023-12-11T11:37:00.668Z,100065.91
2023-12-11T11:40:05.592Z,100055.44
2023-12-11T11:43:12.318Z,100045.81
2023-12-11T11:46:14.828Z,100038.97
2023-12-11T11:49:27.527Z,100041.59
2023-12-11T11:52:30.301Z,100045.75
2023-12-11T11:55:33.352Z,100038.41
2023-12-11T11:58:35.870Z,100042.84
2023-12-11T12:01:51.326Z,100042.66
2023-12-11T12:04:54.267Z,100034.28
2023-12-11T12:07:57.704Z,100030.88
2023-12-11T12:11:00.387Z,100023.78
2023-12-11T12:14:02.896Z,100024.88
2023-12-11T12:17:11.177Z,100025.13
2023-12-11T12:20:15.830Z,100019.88
2023-12-11T12:23:21.066Z,100013.34
2023-12-11T12:26:23.656Z,99987.09
2023-12-11T12:29:31.607Z,99985.78
2023-12-11T12:32:34.511Z,99990.03
2023-12-11T12:35:38.613Z,99992.63
2023-12-11T12:38:41.482Z,99992.63
2023-12-11T12:41:44.034Z,100012.63
2023-12-11T12:44:47.354Z,100017.63
2023-12-11T12:47:49.966Z,100010.28
2023-12-11T12:51:04.668Z,100021.06
2023-12-11T12:54:07.224Z,100016.31
2023-12-11T12:57:09.790Z,100008.47
2023-12-11T13:00:21.707Z,100016.31
2023-12-11T13:03:24.906Z,100011.34
2023-12-11T13:06:27.729Z,100006.38
2023-12-11T13:09:33.903Z,100006.16
2023-12-11T13:12:37.009Z,99996.91
2023-12-11T13:15:40.594Z,99988.25
2023-12-11T13:18:43.251Z,99986.97
2023-12-11T13:21:45.857Z,99986.69
2023-12-11T13:24:48.453Z,99996.94
2023-12-11T13:27:51.384Z,99994.84
2023-12-11T13:30:53.891Z,99979.63
2023-12-11T13:33:56.437Z,99972.03
2023-12-11T13:36:59.923Z,99968.59
2023-12-11T13:40:02.617Z,99975.16
2023-12-11T13:43:05.361Z,99990.41
2023-12-11T13:46:08.696Z,99985.13
2023-12-11T13:49:11.361Z,99968.06
2023-12-11T13:52:13.883Z,99960.25
2023-12-11T13:55:16.360Z,99956.84
2023-12-11T13:58:18.904Z,99966.53
2023-12-11T14:01:21.899Z,99972.81
2023-12-11T14:04:25.724Z,99973.63
2023-12-11T14:07:28.537Z,99971.53
2023-12-11T14:10:32.076Z,99974.38
2023-12-11T14:13:34.672Z,99976.72
2023-12-11T14:16:37.264Z,99986.16
2023-12-11T14:19:40.878Z,99995.66
2023-12-11T14:22:43.410Z,99994.56
2023-12-11T14:25:45.942Z,99993.28
2023-12-11T14:28:48.676Z,99991.97
2023-12-11T14:31:51.159Z,99997.75
2023-12-11T14:34:53.630Z,100013.75
2023-12-11T14:37:56.220Z,100001.16
2023-12-11T14:40:59.809Z,100006.16
2023-12-11T14:44:02.277Z,100011.94
2023-12-11T14:47:06.239Z,100015.56
2023-12-11T14:50:09.851Z,100009.03
2023-12-11T14:53:12.491Z,100023.44
2023-12-11T14:56:14.972Z,100005.59
2023-12-11T14:59:20.150Z,99997.00
2023-12-11T15:02:22.707Z,99998.56
2023-12-11T15:05:25.466Z,99987.00
2023-12-11T15:08:30.178Z,100003.78
2023-12-11T15:11:36.657Z,100001.22
2023-12-11T15:14:39.500Z,99994.34
2023-12-11T15:17:41.979Z,99982.53
2023-12-11T15:20:44.620Z,99967.34
2023-12-11T15:23:47.115Z,99951.59
2023-12-11T15:26:50.337Z,99967.56
2023-12-11T15:29:52.830Z,99966.28
2023-12-11T15:32:55.266Z,99946.56
2023-12-11T15:35:57.802Z,99944.75
2023-12-11T15:39:00.222Z,99957.06
2023-12-11T15:42:02.636Z,99967.31
2023-12-11T15:45:08.897Z,99941.84
2023-12-11T15:48:23.614Z,99945.53
2023-12-11T15:51:27.798Z,99942.13
2023-12-11T15:54:30.273Z,99941.09
2023-12-11T15:57:33.168Z,99939.50
2023-12-11T16:00:35.838Z,99944.47
2023-12-11T16:03:41.922Z,99950.28
2023-12-11T16:06:44.628Z,99942.97
2023-12-11T16:09:48.354Z,99935.59
2023-12-11T16:12:50.959Z,99934.28
2023-12-11T16:15:53.517Z,99934.28
2023-12-11T16:18:56.513Z,99933.25
2023-12-11T16:21:59.160Z,99939.81
2023-12-11T16:25:01.833Z,99942.16
2023-12-11T16:28:04.790Z,99947.66
2023-12-11T16:31:07.560Z,99946.34
2023-12-11T16:34:10.078Z,99944.00
2023-12-11T16:37:12.617Z,99942.72
2023-12-11T16:40:15.229Z,99939.81
2023-12-11T16:43:19.024Z,99940.84
2023-12-11T16:46:22.208Z,99938.47
2023-12-11T16:49:24.751Z,99921.41
2023-12-11T16:52:27.393Z,99929.28
2023-12-11T16:55:30.105Z,99924.84
2023-12-11T16:58:32.947Z,99900.16
2023-12-11T17:01:35.582Z,99899.66
2023-12-11T17:04:38.265Z,99884.69
2023-12-11T17:07:40.807Z,99892.81
2023-12-11T17:10:44.325Z,99906.22
2023-12-11T17:13:46.827Z,99911.47
2023-12-11T17:16:49.228Z,99919.31
2023-12-11T17:19:51.828Z,99919.09
2023-12-11T17:22:54.267Z,99897.28
2023-12-11T17:25:56.669Z,99863.16
2023-12-11T17:29:00.211Z,99852.94
2023-12-11T17:32:02.738Z,99848.72
2023-12-11T17:35:06.411Z,99837.16
2023-12-11T17:38:08.916Z,99852.41
2023-12-11T17:41:11.939Z,99881.78
2023-12-11T17:44:15.335Z,99905.16
2023-12-11T17:47:17.824Z,99913.03
2023-12-11T17:50:20.253Z,99902.53
2023-12-11T17:53:22.713Z,99888.63
2023-12-11T17:56:25.303Z,99872.38
2023-12-11T17:59:27.727Z,99859.22
2023-12-11T18:02:30.160Z,99863.41
2023-12-11T18:05:32.822Z,99845.03
2023-12-11T18:08:35.276Z,99844.53
2023-12-11T18:11:37.999Z,99833.22
2023-12-11T18:14:41.278Z,99849.00
2023-12-11T18:17:43.756Z,99868.16
2023-12-11T18:20:46.249Z,99875.50
2023-12-11T18:23:48.670Z,99882.34
2023-12-11T18:26:51.130Z,99873.41
2023-12-11T18:29:53.687Z,99888.13
2023-12-11T18:32:56.206Z,99906.22
2023-12-11T18:35:59.296Z,99895.19
2023-12-11T18:39:01.744Z,99875.22
2023-12-11T18:42:04.414Z,99839.25
2023-12-11T18:45:07.679Z,99858.44
2023-12-11T18:48:10.451Z,99847.41
2023-12-11T18:51:22.905Z,99850.81
2023-12-11T18:54:25.388Z,99866.56
2023-12-11T18:57:28.226Z,99856.31
2023-12-11T19:00:30.998Z,99846.09
2023-12-11T19:03:33.861Z,99855.81
2023-12-11T19:06:37.129Z,99843.47
2023-12-11T19:09:39.592Z,99836.13
2023-12-11T19:12:42.069Z,99851.63
2023-12-11T19:15:44.909Z,99869.47
2023-12-11T19:18:47.812Z,99877.59
2023-12-11T19:21:51.941Z,99877.88
2023-12-11T19:24:54.522Z,99870.00
2023-12-11T19:27:57.113Z,99853.97
2023-12-11T19:30:59.548Z,99834.03
2023-12-11T19:34:02.354Z,99841.63
2023-12-11T19:37:05.571Z,99833.50
2023-12-11T19:40:08.827Z,99844.25
2023-12-11T19:43:13.266Z,99839.28
2023-12-11T19:46:16.081Z,99848.47
2023-12-11T19:49:18.812Z,99857.13
2023-12-11T19:52:21.649Z,99846.09
2023-12-11T19:55:24.325Z,99850.28
2023-12-11T19:58:27.010Z,99853.19
2023-12-11T20:01:31.882Z,99839.25
2023-12-11T20:04:34.804Z,99835.34
2023-12-11T20:07:37.567Z,99824.56
2023-12-11T20:10:40.587Z,99831.09
2023-12-11T20:13:43.334Z,99832.97
2023-12-11T20:16:45.804Z,99823.47
2023-12-11T20:19:48.367Z,99826.66
2023-12-11T20:22:50.810Z,99806.19
2023-12-11T20:25:53.317Z,99831.09
2023-12-11T20:28:55.849Z,99853.69
2023-12-11T20:31:58.301Z,99854.22
2023-12-11T20:35:00.939Z,99858.16
2023-12-11T20:38:04.184Z,99853.44
2023-12-11T20:41:06.753Z,99852.69
2023-12-11T20:44:09.643Z,99842.44
2023-12-11T20:47:12.075Z,99834.53
2023-12-11T20:50:14.510Z,99846.34
2023-12-11T20:53:16.993Z,99852.41
2023-12-11T20:56:20.753Z,99863.41
2023-12-11T20:59:23.165Z,99845.03
2023-12-11T21:02:26.986Z,99857.91
2023-12-11T21:05:29.463Z,99861.06
2023-12-11T21:08:31.998Z,99864.75
2023-12-11T21:11:38.660Z,99849.25
2023-12-11T21:14:41.448Z,99847.66
2023-12-11T21:17:44.021Z,99851.09
2023-12-11T21:20:46.470Z,99834.56
2023-12-11T21:23:49.944Z,99822.72
2023-12-11T21:26:52.730Z,99809.59
2023-12-11T21:29:55.130Z,99803.84
2023-12-11T21:32:58.100Z,99806.72
2023-12-11T21:36:00.567Z,99818.00
2023-12-11T21:39:03.467Z,99815.91
2023-12-11T21:42:06.193Z,99827.44
2023-12-11T21:45:08.874Z,99830.06
2023-12-11T21:48:11.426Z,99820.38
2023-12-11T21:51:19.047Z,99827.72
2023-12-11T21:54:22.765Z,99833.22
2023-12-11T21:57:25.235Z,99830.59
2023-12-11T22:00:27.681Z,99814.34
2023-12-11T22:03:30.111Z,99809.09
2023-12-11T22:06:34.437Z,99813.00
2023-12-11T22:09:36.862Z,99821.16
2023-12-11T22:12:39.249Z,99810.38
2023-12-11T22:15:41.709Z,99818.50
2023-12-11T22:18:46.867Z,99830.06
2023-12-11T22:21:49.326Z,99834.28
2023-12-11T22:24:51.738Z,99841.88
2023-12-11T22:27:54.262Z,99844.25
2023-12-11T22:30:57.170Z,99845.06
2023-12-11T22:33:59.822Z,99865.78
2023-12-11T22:37:02.342Z,99867.63
2023-12-11T22:40:06.733Z,99851.88
2023-12-11T22:43:09.213Z,99860.78
2023-12-11T22:46:11.677Z,99851.63
2023-12-11T22:49:14.403Z,99850.56
2023-12-11T22:52:17.055Z,99863.69
2023-12-11T22:55:19.452Z,99864.19
2023-12-11T22:58:21.861Z,99841.13
2023-12-11T23:01:24.714Z,99840.59
2023-12-11T23:04:27.253Z,99854.50
2023-12-11T23:07:30.012Z,99850.03
2023-12-11T23:10:33.070Z,99837.97
2023-12-11T23:13:35.551Z,99835.59
2023-12-11T23:16:38.151Z,99848.47
2023-12-11T23:19:41.363Z,99843.97
2023-12-11T23:22:44.497Z,99851.88
2023-12-11T23:25:54.545Z,99844.00
2023-12-11T23:29:01.375Z,99839.00
2023-12-11T23:32:04.063Z,99834.03
2023-12-11T23:35:06.668Z,99831.41
2023-12-11T23:38:09.029Z,99834.81
2023-12-11T23:41:11.506Z,99796.75
2023-12-11T23:44:13.924Z,99817.75
2023-12-11T23:47:16.429Z,99821.94
2023-12-11T23:50:19.126Z,99838.50
2023-12-11T23:53:21.608Z,99830.84
2023-12-11T23:56:24.291Z,99858.16
2023-12-11T23:59:27.633Z,99886.25
